Time;durP1;ratioP1;P1;durP2;ratioP2;P2;SDS_P1;SDS_P2;PMS_P1;PMS_P2;Temp;Humidity;BMP_temperature;BMP_pressure;BME280_temperature;BME280_humidity;BME280_pressure;Samples;Min_cycle;Max_cycle;Signal;HPM_P1;HPM_P2
2024/01/27 00:01:37;;;;;;;0.30;0.20;;;8.30;99.90;;;;;;5071372;28;20204;-78
2024/01/27 00:04:02;;;;;;;0.30;0.20;;;8.30;99.90;;;;;;5071251;28;20200;-77
2024/01/27 00:06:28;;;;;;;0.30;0.20;;;8.30;99.90;;;;;;5071609;28;20244;-80
2024/01/27 00:08:54;;;;;;;0.30;0.30;;;8.30;99.90;;;;;;5069680;28;20665;-82
2024/01/27 00:11:20;;;;;;;0.30;0.20;;;8.30;99.90;;;;;;5071278;28;20228;-77
2024/01/27 00:13:46;;;;;;;0.30;0.20;;;8.30;99.90;;;;;;5071174;28;20227;-77
2024/01/27 00:16:12;;;;;;;0.30;0.20;;;8.30;99.90;;;;;;5069857;28;20181;-77
2024/01/27 00:18:38;;;;;;;0.30;0.20;;;8.30;99.90;;;;;;5071332;28;20262;-78
2024/01/27 00:21:05;;;;;;;0.30;0.20;;;8.30;99.90;;;;;;5071205;28;20402;-82
2024/01/27 00:23:32;;;;;;;2.10;2.00;;;8.30;99.90;;;;;;5071212;28;20268;-82
2024/01/27 00:25:58;;;;;;;0.30;0.20;;;8.30;99.90;;;;;;5085826;28;20522;-83
2024/01/27 00:28:24;;;;;;;0.30;0.20;;;8.40;99.90;;;;;;5069566;28;20231;-77
2024/01/27 00:30:50;;;;;;;0.30;0.20;;;8.40;99.90;;;;;;5069551;28;20658;-81
2024/01/27 00:33:15;;;;;;;0.30;0.20;;;8.40;99.90;;;;;;5070851;28;20193;-78
2024/01/27 00:35:42;;;;;;;0.30;0.20;;;8.40;99.90;;;;;;5069564;28;20885;-81
2024/01/27 00:38:07;;;;;;;0.30;0.20;;;8.50;99.90;;;;;;5070251;28;20417;-82
2024/01/27 00:40:33;;;;;;;0.30;0.20;;;8.50;99.90;;;;;;5069949;28;20291;-82
2024/01/27 00:42:59;;;;;;;0.30;0.20;;;8.60;99.90;;;;;;5086064;28;20197;-81
2024/01/27 00:45:27;;;;;;;0.30;0.20;;;8.60;99.90;;;;;;5069423;28;20457;-77
2024/01/27 00:47:52;;;;;;;0.30;0.20;;;8.60;99.90;;;;;;5070403;28;20208;-82
2024/01/27 00:50:18;;;;;;;0.30;0.20;;;8.70;99.90;;;;;;5070720;28;20185;-82
2024/01/27 00:52:44;;;;;;;0.30;0.20;;;8.80;99.90;;;;;;5086091;28;20205;-81
2024/01/27 00:55:10;;;;;;;0.30;0.20;;;8.80;99.90;;;;;;5070373;28;20180;-77
2024/01/27 00:57:38;;;;;;;0.30;0.20;;;8.90;99.90;;;;;;5068620;28;20320;-78
2024/01/27 01:00:06;;;;;;;0.30;0.20;;;8.80;99.90;;;;;;5068764;28;20187;-82
2024/01/27 01:02:32;;;;;;;0.30;0.20;;;8.90;99.90;;;;;;5069936;28;20189;-82
2024/01/27 01:04:58;;;;;;;0.30;0.20;;;8.90;99.90;;;;;;5070184;28;20173;-78
2024/01/27 01:07:24;;;;;;;0.30;0.20;;;9.00;99.90;;;;;;5070368;28;20196;-82
2024/01/27 01:09:49;;;;;;;0.30;0.20;;;9.00;99.90;;;;;;5069527;28;20173;-77
2024/01/27 01:12:15;;;;;;;0.30;0.20;;;9.00;99.90;;;;;;5084982;28;20215;-77
2024/01/27 01:14:41;;;;;;;0.30;0.20;;;9.00;99.90;;;;;;5069713;28;20266;-79
2024/01/27 01:17:07;;;;;;;0.30;0.20;;;9.10;99.90;;;;;;5069987;28;20173;-82
2024/01/27 01:19:33;;;;;;;0.30;0.20;;;9.10;99.90;;;;;;5069459;28;20360;-82
2024/01/27 01:21:59;;;;;;;0.30;0.20;;;9.10;99.90;;;;;;5070329;28;20224;-78
2024/01/27 01:24:25;;;;;;;0.30;0.20;;;9.10;99.90;;;;;;5068324;28;20209;-78
2024/01/27 01:26:50;;;;;;;0.30;0.20;;;9.10;99.90;;;;;;5068589;28;20173;-82
2024/01/27 01:29:16;;;;;;;0.30;0.20;;;9.10;99.90;;;;;;5067665;28;20205;-82
2024/01/27 01:31:43;;;;;;;0.30;0.20;;;9.10;99.90;;;;;;5067674;28;20177;-82
2024/01/27 01:34:08;;;;;;;0.30;0.20;;;9.10;99.90;;;;;;5068756;28;20604;-82
2024/01/27 01:36:34;;;;;;;0.30;0.20;;;9.10;99.90;;;;;;5069215;28;20173;-81
2024/01/27 01:39:00;;;;;;;0.30;0.20;;;9.20;99.90;;;;;;5067593;28;20343;-77
2024/01/27 01:41:25;;;;;;;0.30;0.20;;;9.20;99.90;;;;;;5067686;28;20303;-78
2024/01/27 01:43:51;;;;;;;0.30;0.20;;;9.20;99.90;;;;;;5069170;28;20197;-82
2024/01/27 01:46:17;;;;;;;0.30;0.20;;;9.30;99.90;;;;;;5069457;28;20253;-81
2024/01/27 01:48:44;;;;;;;0.30;0.20;;;9.30;99.90;;;;;;5069372;28;20188;-77
2024/01/27 01:51:10;;;;;;;0.30;0.20;;;9.30;99.90;;;;;;5069508;28;20177;-82
2024/01/27 01:53:35;;;;;;;0.30;0.20;;;9.40;99.90;;;;;;5069472;28;20457;-82
2024/01/27 01:56:02;;;;;;;0.30;0.20;;;9.40;99.90;;;;;;5068111;28;20934;-82
2024/01/27 01:58:33;;;;;;;0.30;0.20;;;9.50;99.90;;;;;;5067689;28;20203;-77
2024/01/27 02:01:03;;;;;;;0.30;0.20;;;9.50;99.90;;;;;;5084780;28;20217;-78
2024/01/27 02:03:28;;;;;;;0.35;0.30;;;9.50;99.90;;;;;;5084708;28;20200;-82
2024/01/27 02:05:55;;;;;;;0.30;0.20;;;9.50;99.90;;;;;;5068057;28;20183;-81
2024/01/27 02:08:21;;;;;;;0.30;0.30;;;9.40;99.90;;;;;;5069135;28;20219;-81
2024/01/27 02:10:47;;;;;;;0.30;0.20;;;9.40;99.90;;;;;;5069154;28;20260;-77
2024/01/27 02:13:20;;;;;;;0.30;0.20;;;9.40;99.90;;;;;;5069262;28;20288;-78
2024/01/27 02:15:46;;;;;;;0.30;0.20;;;9.30;99.90;;;;;;5068862;28;21044;-82
2024/01/27 02:18:12;;;;;;;0.30;0.20;;;9.20;99.90;;;;;;5068668;28;20203;-82
2024/01/27 02:20:38;;;;;;;0.30;0.20;;;9.20;99.90;;;;;;5069361;28;20216;-78
2024/01/27 02:23:07;;;;;;;0.30;0.20;;;9.20;99.90;;;;;;5069096;28;20193;-80
2024/01/27 02:25:34;;;;;;;0.30;0.20;;;9.10;99.90;;;;;;5084509;28;20549;-82
2024/01/27 02:28:00;;;;;;;0.30;0.20;;;9.10;99.90;;;;;;5069174;28;20189;-82
2024/01/27 02:30:26;;;;;;;0.30;0.20;;;9.10;99.90;;;;;;5069441;28;20177;-82
2024/01/27 02:32:53;;;;;;;0.30;0.20;;;9.10;99.90;;;;;;5067727;28;20204;-77
2024/01/27 02:35:19;;;;;;;0.30;0.20;;;9.10;99.90;;;;;;5069168;28;20185;-82
2024/01/27 02:37:44;;;;;;;0.30;0.20;;;9.10;99.90;;;;;;5069146;28;20674;-78
2024/01/27 02:40:10;;;;;;;0.30;0.20;;;9.00;99.90;;;;;;5067515;28;20200;-77
2024/01/27 02:42:37;;;;;;;0.30;0.20;;;9.00;99.90;;;;;;5068934;28;20554;-77
2024/01/27 02:45:03;;;;;;;0.30;0.20;;;8.90;99.90;;;;;;5067468;28;20185;-81
2024/01/27 02:47:29;;;;;;;0.30;0.20;;;8.80;99.90;;;;;;5067837;28;20192;-78
2024/01/27 02:49:55;;;;;;;0.30;0.20;;;8.80;99.90;;;;;;5072906;28;20185;-77
2024/01/27 02:52:20;;;;;;;0.30;0.20;;;8.80;99.90;;;;;;5073040;28;20173;-82
2024/01/27 02:54:46;;;;;;;0.30;0.20;;;8.80;99.90;;;;;;5070975;28;20247;-81
2024/01/27 02:57:13;;;;;;;0.30;0.20;;;8.70;99.90;;;;;;5072861;28;20177;-82
2024/01/27 02:59:38;;;;;;;0.30;0.20;;;8.70;99.90;;;;;;5070593;28;20603;-82
2024/01/27 03:02:08;;;;;;;0.30;0.20;;;8.70;99.90;;;;;;5071249;28;20209;-81
2024/01/27 03:04:33;;;;;;;0.30;0.20;;;8.70;99.90;;;;;;5070406;28;20208;-77
2024/01/27 03:06:59;;;;;;;0.30;0.20;;;8.70;99.90;;;;;;5072905;28;20839;-78
2024/01/27 03:09:25;;;;;;;0.30;0.20;;;8.70;99.90;;;;;;5071977;28;20468;-82
2024/01/27 03:11:51;;;;;;;0.30;0.20;;;8.70;99.90;;;;;;5088072;28;20261;-82
2024/01/27 03:14:16;;;;;;;0.30;0.20;;;8.60;99.90;;;;;;5070698;28;20262;-82
2024/01/27 03:16:44;;;;;;;0.30;0.20;;;8.60;99.90;;;;;;5071144;28;20577;-81
2024/01/27 03:19:10;;;;;;;0.30;0.20;;;8.60;99.90;;;;;;5071928;28;20287;-81
2024/01/27 03:21:36;;;;;;;0.30;0.20;;;8.60;99.90;;;;;;5070944;28;20358;-82
2024/01/27 03:24:02;;;;;;;0.30;0.20;;;8.60;99.90;;;;;;5071756;28;20866;-76
2024/01/27 03:26:27;;;;;;;0.30;0.20;;;8.50;99.90;;;;;;5072331;28;20559;-82
2024/01/27 03:28:53;;;;;;;0.30;0.20;;;8.50;99.90;;;;;;5072006;28;20197;-82
2024/01/27 03:31:19;;;;;;;0.30;0.20;;;8.50;99.90;;;;;;5072134;28;20200;-81
2024/01/27 03:33:44;;;;;;;0.30;0.20;;;8.50;99.90;;;;;;5071831;28;20689;-77
2024/01/27 03:36:11;;;;;;;0.30;0.20;;;8.50;99.90;;;;;;5071895;28;20169;-78
2024/01/27 03:38:39;;;;;;;0.30;0.20;;;8.40;99.90;;;;;;5070288;28;20430;-81
2024/01/27 03:41:05;;;;;;;0.30;0.20;;;8.40;99.90;;;;;;5071032;28;20274;-77
2024/01/27 03:43:31;;;;;;;0.30;0.20;;;8.40;99.90;;;;;;5071255;28;20238;-82
2024/01/27 03:46:00;;;;;;;0.30;0.20;;;8.40;99.90;;;;;;5070361;28;20180;-79
2024/01/27 03:48:25;;;;;;;0.30;0.20;;;8.40;99.90;;;;;;5071620;28;20769;-82
2024/01/27 03:50:51;;;;;;;0.30;0.20;;;8.40;99.90;;;;;;5071641;28;20266;-82
2024/01/27 03:53:17;;;;;;;0.30;0.20;;;8.40;99.90;;;;;;5071577;28;20505;-77
2024/01/27 03:55:43;;;;;;;0.30;0.20;;;8.40;99.90;;;;;;5071868;28;20487;-81
2024/01/27 03:58:09;;;;;;;0.30;0.20;;;8.40;99.90;;;;;;5071636;28;20201;-77
2024/01/27 04:00:34;;;;;;;0.30;0.20;;;8.40;99.90;;;;;;5071050;28;20213;-81
2024/01/27 04:03:00;;;;;;;0.30;0.20;;;8.40;99.90;;;;;;5071336;28;20196;-82
2024/01/27 04:05:28;;;;;;;0.30;0.30;;;8.40;99.90;;;;;;5071725;28;20640;-78
2024/01/27 04:07:53;;;;;;;0.30;0.20;;;8.40;99.90;;;;;;5071541;28;20208;-77
2024/01/27 04:10:20;;;;;;;0.30;0.20;;;8.40;99.90;;;;;;5071324;28;20233;-78
2024/01/27 04:12:45;;;;;;;0.30;0.20;;;8.30;99.90;;;;;;5070244;28;20250;-77
2024/01/27 04:15:11;;;;;;;0.30;0.20;;;8.30;99.90;;;;;;5069651;28;20185;-80
2024/01/27 04:17:38;;;;;;;0.30;0.20;;;8.30;99.90;;;;;;5071138;28;20169;-77
2024/01/27 04:20:04;;;;;;;0.30;0.20;;;8.30;99.90;;;;;;5071220;28;21182;-82
2024/01/27 04:22:31;;;;;;;0.30;0.20;;;8.30;99.90;;;;;;5071250;28;20537;-82
2024/01/27 04:24:57;;;;;;;0.30;0.20;;;8.30;99.90;;;;;;5070823;28;20545;-81
2024/01/27 04:27:22;;;;;;;0.30;0.20;;;8.30;99.90;;;;;;5071218;28;20181;-82
2024/01/27 04:29:48;;;;;;;0.30;0.20;;;8.30;99.90;;;;;;5070982;28;20184;-82
2024/01/27 04:32:14;;;;;;;0.30;0.20;;;8.30;99.90;;;;;;5071529;28;20650;-80
2024/01/27 04:34:39;;;;;;;0.30;0.20;;;8.30;99.90;;;;;;5086286;28;20207;-81
2024/01/27 04:37:05;;;;;;;0.30;0.20;;;8.30;99.90;;;;;;5071053;28;20179;-78
2024/01/27 04:39:31;;;;;;;0.30;0.20;;;8.20;99.90;;;;;;5070473;28;20219;-79
2024/01/27 04:41:56;;;;;;;0.30;0.20;;;8.30;99.90;;;;;;5070449;28;20303;-82
2024/01/27 04:44:22;;;;;;;0.30;0.20;;;8.30;99.90;;;;;;5069660;28;20200;-82
2024/01/27 04:46:48;;;;;;;0.30;0.20;;;8.20;99.90;;;;;;5070351;28;20680;-82
2024/01/27 04:49:15;;;;;;;0.30;0.20;;;8.20;99.90;;;;;;5070233;28;20197;-77
2024/01/27 04:51:41;;;;;;;0.30;0.20;;;8.10;99.90;;;;;;5069277;28;20406;-78
2024/01/27 04:54:08;;;;;;;0.30;0.20;;;8.20;99.90;;;;;;5070247;28;20676;-77
2024/01/27 04:56:33;;;;;;;0.30;0.20;;;8.10;99.90;;;;;;5069644;28;20515;-77
2024/01/27 04:58:59;;;;;;;0.30;0.20;;;8.00;99.90;;;;;;5068906;28;20510;-82
2024/01/27 05:01:25;;;;;;;0.30;0.20;;;8.00;99.90;;;;;;5085536;28;20201;-78
2024/01/27 05:03:50;;;;;;;0.30;0.20;;;8.00;99.90;;;;;;5069884;28;20201;-82
2024/01/27 05:06:17;;;;;;;0.30;0.20;;;8.00;99.90;;;;;;5069994;28;20309;-78
2024/01/27 05:08:43;;;;;;;0.30;0.20;;;8.00;99.90;;;;;;5070123;28;20347;-84
2024/01/27 05:11:09;;;;;;;0.30;0.20;;;7.90;99.90;;;;;;5069200;28;20311;-80
2024/01/27 05:13:35;;;;;;;0.30;0.20;;;7.90;99.90;;;;;;5068536;28;20342;-84
2024/01/27 05:16:00;;;;;;;0.30;0.20;;;7.90;99.90;;;;;;5069867;28;20172;-80
2024/01/27 05:18:26;;;;;;;0.30;0.20;;;7.90;99.90;;;;;;5068622;28;20196;-78
2024/01/27 05:20:53;;;;;;;0.30;0.20;;;7.90;99.90;;;;;;5068508;28;20555;-78
2024/01/27 05:23:19;;;;;;;0.30;0.20;;;7.90;99.90;;;;;;5069840;28;20242;-80
2024/01/27 05:25:44;;;;;;;0.30;0.20;;;7.90;99.90;;;;;;5070072;28;20177;-79
2024/01/27 05:28:10;;;;;;;0.30;0.20;;;7.90;99.90;;;;;;5069839;28;20266;-77
2024/01/27 05:30:36;;;;;;;0.30;0.20;;;7.90;99.90;;;;;;5070246;28;20173;-77
2024/01/27 05:33:01;;;;;;;0.30;0.20;;;7.80;99.90;;;;;;5069644;28;20204;-82
2024/01/27 05:35:27;;;;;;;0.30;0.20;;;7.80;99.90;;;;;;5070220;28;20176;-81
2024/01/27 05:37:53;;;;;;;0.30;0.20;;;7.80;99.90;;;;;;5069774;28;20738;-82
2024/01/27 05:40:19;;;;;;;0.30;0.20;;;7.80;99.90;;;;;;5067992;28;20551;-82
2024/01/27 05:42:45;;;;;;;0.30;0.20;;;7.70;99.90;;;;;;5069615;28;20207;-77
2024/01/27 05:45:12;;;;;;;0.30;0.20;;;7.70;99.90;;;;;;5067086;28;20650;-82
2024/01/27 05:47:37;;;;;;;0.30;0.20;;;7.70;99.90;;;;;;5068166;28;20410;-77
2024/01/27 05:50:04;;;;;;;0.30;0.30;;;7.60;99.90;;;;;;5068155;28;20189;-78
2024/01/27 05:52:30;;;;;;;0.30;0.20;;;7.60;99.90;;;;;;5069776;28;20619;-81
2024/01/27 05:54:55;;;;;;;0.30;0.20;;;7.60;99.90;;;;;;5069303;28;20232;-77
2024/01/27 05:57:21;;;;;;;0.30;0.20;;;7.60;99.90;;;;;;5069470;28;20181;-81
2024/01/27 05:59:47;;;;;;;0.30;0.20;;;7.60;99.90;;;;;;5067695;28;20184;-78
2024/01/27 06:02:13;;;;;;;0.30;0.20;;;7.60;99.90;;;;;;5084408;28;20226;-78
2024/01/27 06:04:39;;;;;;;0.30;0.20;;;7.60;99.90;;;;;;5067510;28;20283;-78
2024/01/27 06:07:04;;;;;;;0.30;0.20;;;7.60;99.90;;;;;;5085044;28;20176;-77
2024/01/27 06:09:30;;;;;;;0.30;0.20;;;7.60;99.90;;;;;;5068961;28;20246;-82
2024/01/27 06:11:59;;;;;;;0.30;0.20;;;7.60;99.90;;;;;;5069489;28;20233;-77
2024/01/27 06:14:24;;;;;;;0.30;0.20;;;7.60;99.90;;;;;;5068928;28;20258;-82
2024/01/27 06:16:51;;;;;;;0.30;0.20;;;7.50;99.90;;;;;;5069577;28;20169;-77
2024/01/27 06:19:17;;;;;;;0.30;0.20;;;7.50;99.90;;;;;;5067217;28;20211;-81
2024/01/27 06:21:42;;;;;;;0.30;0.20;;;7.50;99.90;;;;;;5069561;28;20216;-79
2024/01/27 06:24:08;;;;;;;0.30;0.20;;;7.50;99.90;;;;;;5071651;28;20242;-81
2024/01/27 06:26:34;;;;;;;0.30;0.20;;;7.50;99.90;;;;;;5073293;28;20256;-82
2024/01/27 06:29:00;;;;;;;0.30;0.20;;;7.50;99.90;;;;;;5071591;28;20707;-81
2024/01/27 06:31:26;;;;;;;0.30;0.20;;;7.50;99.90;;;;;;5073323;28;20177;-81
2024/01/27 06:33:52;;;;;;;0.30;0.20;;;7.40;99.90;;;;;;5073047;28;20189;-82
2024/01/27 06:36:17;;;;;;;0.30;0.20;;;7.40;99.90;;;;;;5072526;28;20184;-78
2024/01/27 06:38:43;;;;;;;0.30;0.20;;;7.40;99.90;;;;;;5070065;28;20655;-77
2024/01/27 06:41:10;;;;;;;0.30;0.20;;;7.40;99.90;;;;;;5071050;28;20223;-81
2024/01/27 06:43:35;;;;;;;0.30;0.20;;;7.40;99.90;;;;;;5070835;28;20204;-77
2024/01/27 06:46:01;;;;;;;0.30;0.20;;;7.50;99.90;;;;;;5068551;28;20654;-82
2024/01/27 06:48:27;;;;;;;0.30;0.20;;;7.40;99.90;;;;;;5071020;28;20203;-77
2024/01/27 06:50:52;;;;;;;0.30;0.20;;;7.40;99.90;;;;;;5071094;28;20252;-77
2024/01/27 06:53:19;;;;;;;0.30;0.20;;;7.50;99.90;;;;;;5071432;28;20216;-77
2024/01/27 06:55:45;;;;;;;0.30;0.20;;;7.40;99.90;;;;;;5072966;28;20177;-82
2024/01/27 06:58:10;;;;;;;0.30;0.20;;;7.50;99.90;;;;;;5071164;28;20201;-77
2024/01/27 07:00:36;;;;;;;0.30;0.20;;;7.50;99.90;;;;;;5071074;28;20213;-81
2024/01/27 07:03:02;;;;;;;0.30;0.20;;;7.50;99.90;;;;;;5072257;28;20715;-81
2024/01/27 07:05:28;;;;;;;0.30;0.20;;;7.50;99.90;;;;;;5070584;28;20422;-82
2024/01/27 07:07:54;;;;;;;0.30;0.20;;;7.60;99.90;;;;;;5072602;28;20470;-77
2024/01/27 07:10:20;;;;;;;0.30;0.20;;;7.60;99.90;;;;;;5070627;28;20228;-77
2024/01/27 07:12:46;;;;;;;0.30;0.20;;;7.60;99.90;;;;;;5072116;28;20716;-77
2024/01/27 07:15:11;;;;;;;0.30;0.20;;;7.70;99.90;;;;;;5072552;28;20263;-80
2024/01/27 07:17:37;;;;;;;0.30;0.30;;;7.80;99.90;;;;;;5072655;28;20528;-77
2024/01/27 07:20:03;;;;;;;0.30;0.30;;;7.90;99.90;;;;;;5072560;28;20196;-77
2024/01/27 07:22:28;;;;;;;0.30;0.30;;;8.20;99.90;;;;;;5072462;28;20220;-78
2024/01/27 07:24:55;;;;;;;0.30;0.30;;;8.50;99.90;;;;;;5071964;28;20870;-82
2024/01/27 07:27:22;;;;;;;0.30;0.20;;;8.80;99.90;;;;;;5087670;28;20184;-82
2024/01/27 07:29:48;;;;;;;3.45;3.25;;;8.90;99.90;;;;;;5072087;28;20237;-77
2024/01/27 07:32:13;;;;;;;12.30;2.30;;;9.00;99.90;;;;;;5070921;28;20416;-82
2024/01/27 07:34:41;;;;;;;0.30;0.20;;;9.00;99.90;;;;;;5071232;28;20732;-82
2024/01/27 07:37:08;;;;;;;0.30;0.20;;;9.00;99.90;;;;;;5072018;28;20204;-82
2024/01/27 07:39:33;;;;;;;0.30;0.20;;;9.10;99.90;;;;;;5071871;28;20196;-77
2024/01/27 07:41:59;;;;;;;0.30;0.20;;;9.10;99.90;;;;;;5071913;28;20593;-77
2024/01/27 07:44:24;;;;;;;0.30;0.20;;;9.20;99.90;;;;;;5069925;28;20204;-82
2024/01/27 07:46:50;;;;;;;0.30;0.20;;;9.30;99.90;;;;;;5070826;28;20540;-77
2024/01/27 07:49:16;;;;;;;0.30;0.20;;;9.60;99.90;;;;;;5070517;28;20570;-77
2024/01/27 07:51:41;;;;;;;0.30;0.20;;;9.90;99.90;;;;;;5071932;28;20258;-82
2024/01/27 07:54:07;;;;;;;0.30;0.20;;;10.20;99.90;;;;;;5071256;28;20219;-78
2024/01/27 07:56:33;;;;;;;0.30;0.20;;;10.60;99.90;;;;;;5087476;28;20185;-81
2024/01/27 07:58:59;;;;;;;0.30;0.20;;;10.90;99.90;;;;;;5070051;28;20197;-82
2024/01/27 08:01:24;;;;;;;0.30;0.20;;;11.10;99.90;;;;;;5070218;28;20217;-82
2024/01/27 08:03:50;;;;;;;0.30;0.20;;;11.40;99.90;;;;;;5069948;28;20454;-77
2024/01/27 08:06:17;;;;;;;0.30;0.30;;;11.60;99.90;;;;;;5070851;28;20609;-81
2024/01/27 08:08:48;;;;;;;0.30;0.20;;;12.00;99.90;;;;;;5071373;28;20402;-82
2024/01/27 08:11:18;;;;;;;0.37;0.20;;;12.40;99.90;;;;;;5069675;28;21077;-79
2024/01/27 08:13:44;;;;;;;0.40;0.30;;;12.70;99.40;;;;;;5071144;28;20852;-83
2024/01/27 08:16:12;;;;;;;0.40;0.30;;;13.10;98.30;;;;;;5069689;28;20430;-82
2024/01/27 08:18:45;;;;;;;0.40;0.30;;;13.70;97.50;;;;;;5069728;28;20441;-83
2024/01/27 08:21:14;;;;;;;0.40;0.30;;;14.30;96.50;;;;;;5070795;28;20540;-79
2024/01/27 08:23:39;;;;;;;0.40;0.20;;;15.00;95.00;;;;;;5070616;28;20426;-78
2024/01/27 08:26:05;;;;;;;0.40;0.30;;;15.50;93.60;;;;;;5071232;28;20402;-82
2024/01/27 08:28:31;;;;;;;0.40;0.20;;;16.00;92.70;;;;;;5070818;28;20193;-82
2024/01/27 08:30:57;;;;;;;0.40;0.23;;;16.40;91.30;;;;;;5070970;28;20177;-82
2024/01/27 08:33:22;;;;;;;0.40;0.20;;;16.80;90.20;;;;;;5069084;28;20204;-78
2024/01/27 08:35:48;;;;;;;0.40;0.30;;;17.10;89.60;;;;;;5084397;28;20428;-82
2024/01/27 08:38:14;;;;;;;0.40;0.30;;;17.50;88.00;;;;;;5086090;28;20203;-82
2024/01/27 08:40:40;;;;;;;0.40;0.30;;;17.90;86.50;;;;;;5087567;28;20282;-82
2024/01/27 08:43:06;;;;;;;0.40;0.20;;;18.20;84.60;;;;;;5085743;28;20904;-82
2024/01/27 08:45:32;;;;;;;0.40;0.30;;;18.40;83.50;;;;;;5084947;28;20474;-80
2024/01/27 08:47:58;;;;;;;0.40;0.40;;;18.50;82.70;;;;;;5086669;28;20191;-79
2024/01/27 08:50:24;;;;;;;0.40;0.27;;;18.60;82.60;;;;;;5087635;28;21025;-78
2024/01/27 08:52:50;;;;;;;0.40;0.40;;;18.80;81.50;;;;;;5089280;28;20435;-82
2024/01/27 08:55:18;;;;;;;0.40;0.30;;;18.80;81.10;;;;;;5088696;28;20183;-78
2024/01/27 08:57:47;;;;;;;0.40;0.20;;;18.80;80.60;;;;;;5087390;28;20204;-79
2024/01/27 09:00:14;;;;;;;0.40;0.30;;;18.70;80.30;;;;;;5089016;28;20432;-82
2024/01/27 09:02:40;;;;;;;0.40;0.30;;;18.80;81.40;;;;;;5088363;28;20553;-79
2024/01/27 09:05:06;;;;;;;0.40;0.30;;;18.90;80.60;;;;;;5087223;28;20983;-78
2024/01/27 09:07:40;;;;;;;0.40;0.20;;;19.20;79.90;;;;;;5142919;27;21088;-78
2024/01/27 09:10:06;;;;;;;0.40;0.20;;;19.50;79.10;;;;;;5127376;27;20483;-78
2024/01/27 09:12:32;;;;;;;0.40;0.30;;;19.80;79.80;;;;;;5128254;27;20187;-82
2024/01/27 09:14:58;;;;;;;0.40;0.27;;;20.10;77.50;;;;;;5127747;27;20413;-79
2024/01/27 09:17:24;;;;;;;0.40;0.30;;;20.40;76.80;;;;;;5142845;27;20704;-78
2024/01/27 09:19:50;;;;;;;0.40;0.30;;;20.50;75.40;;;;;;5125268;27;20499;-82
2024/01/27 09:22:16;;;;;;;0.40;0.30;;;20.40;75.60;;;;;;5143839;27;20262;-82
2024/01/27 09:24:42;;;;;;;0.40;0.20;;;20.30;75.90;;;;;;5127335;27;20522;-82
2024/01/27 09:27:07;;;;;;;0.40;0.20;;;20.40;75.70;;;;;;5127849;27;20572;-79
2024/01/27 09:29:33;;;;;;;0.40;0.20;;;20.50;75.70;;;;;;5127284;27;20648;-78
2024/01/27 09:31:59;;;;;;;0.40;0.30;;;20.70;74.80;;;;;;5143412;27;20236;-78
2024/01/27 09:34:24;;;;;;;0.40;0.20;;;20.60;74.10;;;;;;5127044;27;20202;-82
2024/01/27 09:36:50;;;;;;;0.40;0.27;;;20.40;74.60;;;;;;5127675;28;20176;-82
2024/01/27 09:39:16;;;;;;;1.03;1.00;;;20.20;74.50;;;;;;5142828;27;20203;-78
2024/01/27 09:41:43;;;;;;;0.40;0.20;;;20.10;74.90;;;;;;5127567;28;20620;-78
2024/01/27 09:44:12;;;;;;;0.30;0.20;;;19.90;74.70;;;;;;5142693;27;20434;-82
2024/01/27 09:46:38;;;;;;;0.30;0.20;;;19.60;76.20;;;;;;5127348;27;20498;-78
2024/01/27 09:49:04;;;;;;;0.40;0.20;;;19.00;76.00;;;;;;5142577;27;20450;-82
2024/01/27 09:51:30;;;;;;;0.40;0.20;;;18.20;77.30;;;;;;5127275;27;20405;-78
2024/01/27 09:53:56;;;;;;;0.40;0.20;;;17.50;78.80;;;;;;5125632;27;20201;-78
2024/01/27 09:56:23;;;;;;;0.40;0.23;;;17.20;80.00;;;;;;5127465;27;20844;-78
2024/01/27 09:58:50;;;;;;;0.40;0.20;;;17.00;80.80;;;;;;5142685;27;20977;-78
2024/01/27 10:01:20;;;;;;;0.40;0.20;;;17.00;80.10;;;;;;5127033;27;20438;-78
2024/01/27 10:03:47;;;;;;;0.40;0.40;;;16.80;80.50;;;;;;5126417;27;20820;-81
2024/01/27 10:06:16;;;;;;;2.00;1.90;;;16.80;80.70;;;;;;5126376;27;20992;-82
2024/01/27 10:08:51;;;;;;;0.40;0.30;;;16.60;80.80;;;;;;5127023;27;20913;-82
2024/01/27 10:11:19;;;;;;;0.40;0.30;;;16.20;82.00;;;;;;5142820;27;20427;-81
2024/01/27 10:13:44;;;;;;;0.40;0.20;;;16.10;83.20;;;;;;5126605;27;20470;-78
2024/01/27 10:16:12;;;;;;;0.40;0.30;;;16.20;83.50;;;;;;5142331;27;20481;-78
2024/01/27 10:18:37;;;;;;;2.47;2.37;;;16.30;82.30;;;;;;5114259;28;20272;-82
2024/01/27 10:21:18;;;;;;;0.30;0.20;;;16.30;82.20;;;;;;5112798;28;20519;-81
2024/01/27 10:23:43;;;;;;;0.40;0.20;;;16.20;83.00;;;;;;5112571;28;20210;-77
2024/01/27 10:26:10;;;;;;;0.40;0.20;;;16.00;83.30;;;;;;5128702;27;20471;-78
2024/01/27 10:28:36;;;;;;;0.30;0.20;;;15.70;82.00;;;;;;5128586;27;20196;-82
2024/01/27 10:31:09;;;;;;;0.77;0.77;;;15.30;83.50;;;;;;5112869;28;20752;-82
2024/01/27 10:33:35;;;;;;;0.30;0.30;;;15.00;84.40;;;;;;5128490;27;20221;-81
2024/01/27 10:36:00;;;;;;;0.40;0.20;;;14.70;82.80;;;;;;5112355;28;20511;-78
2024/01/27 10:38:39;;;;;;;0.30;0.20;;;14.40;83.50;;;;;;5112412;28;20188;-81
2024/01/27 10:41:12;;;;;;;0.30;0.20;;;14.30;84.20;;;;;;5112433;28;20656;-77
2024/01/27 10:43:38;;;;;;;0.83;0.83;;;14.10;85.30;;;;;;5112275;28;20815;-78
2024/01/27 10:46:08;;;;;;;0.30;0.20;;;13.90;85.50;;;;;;5127938;27;21048;-82
2024/01/27 10:48:36;;;;;;;0.30;0.20;;;13.70;85.60;;;;;;5111901;28;20431;-79
2024/01/27 10:51:12;;;;;;;0.40;0.30;;;13.50;86.10;;;;;;5112368;28;20427;-82
2024/01/27 10:53:39;;;;;;;0.30;0.20;;;13.30;86.10;;;;;;5123234;27;20836;-82
2024/01/27 10:56:09;;;;;;;0.40;0.20;;;13.10;86.80;;;;;;5111241;28;20440;-81
2024/01/27 10:58:40;;;;;;;0.30;0.20;;;13.00;87.70;;;;;;5111996;28;20864;-81
2024/01/27 11:01:10;;;;;;;0.30;0.20;;;13.00;87.90;;;;;;5128347;27;20929;-77
2024/01/27 11:03:40;;;;;;;1.20;1.10;;;12.90;88.10;;;;;;5127424;27;20811;-81
2024/01/27 11:06:06;;;;;;;0.40;0.20;;;12.90;87.30;;;;;;5111653;28;20523;-77
2024/01/27 11:08:34;;;;;;;0.30;0.20;;;12.80;88.10;;;;;;5111709;27;20791;-77
2024/01/27 11:11:03;;;;;;;0.30;0.20;;;12.80;88.70;;;;;;5127807;27;20572;-82
2024/01/27 11:13:31;;;;;;;0.30;0.20;;;12.90;89.80;;;;;;5112052;28;20924;-78
2024/01/27 11:16:00;;;;;;;0.30;0.20;;;13.00;89.70;;;;;;5127505;27;20817;-78
2024/01/27 11:18:27;;;;;;;0.30;0.20;;;13.00;88.50;;;;;;5111625;28;20929;-81
2024/01/27 11:20:54;;;;;;;0.30;0.20;;;13.00;87.80;;;;;;5111270;28;20836;-82
2024/01/27 11:23:20;;;;;;;0.30;0.20;;;13.00;89.20;;;;;;5127390;27;20482;-82
2024/01/27 11:25:45;;;;;;;0.30;0.20;;;12.90;88.00;;;;;;5111395;28;20488;-77
2024/01/27 11:28:20;;;;;;;0.30;0.20;;;12.70;88.40;;;;;;5126987;27;20202;-81
2024/01/27 11:30:47;;;;;;;0.73;0.73;;;12.50;87.70;;;;;;5126804;27;20187;-84
2024/01/27 11:33:13;;;;;;;0.30;0.20;;;12.20;88.80;;;;;;5111567;28;20716;-84
2024/01/27 11:35:39;;;;;;;0.30;0.20;;;12.10;89.80;;;;;;5111491;28;20467;-80
2024/01/27 11:38:04;;;;;;;0.30;0.20;;;12.10;89.80;;;;;;5111513;28;20464;-80
2024/01/27 11:40:30;;;;;;;0.30;0.20;;;12.10;90.30;;;;;;5111399;28;20215;-80
2024/01/27 11:43:01;;;;;;;0.30;0.20;;;12.00;90.20;;;;;;5126808;27;20196;-84
2024/01/27 11:45:30;;;;;;;0.30;0.20;;;12.00;90.30;;;;;;5111122;28;20928;-79
2024/01/27 11:47:56;;;;;;;0.30;0.20;;;12.00;90.10;;;;;;5126763;27;20436;-84
2024/01/27 11:50:23;;;;;;;0.30;0.20;;;12.00;88.60;;;;;;5111317;28;20392;-80
2024/01/27 11:52:49;;;;;;;0.30;0.20;;;11.80;89.50;;;;;;5111179;28;20420;-79
2024/01/27 11:55:15;;;;;;;2.28;2.17;;;11.60;89.20;;;;;;5110997;28;20438;-84
2024/01/27 11:57:42;;;;;;;0.30;0.20;;;11.40;90.10;;;;;;5125508;27;20200;-80
2024/01/27 12:00:10;;;;;;;0.30;0.20;;;11.40;90.80;;;;;;5126764;27;20175;-80
2024/01/27 12:02:38;;;;;;;0.30;0.20;;;11.30;91.30;;;;;;5126841;27;20267;-84
2024/01/27 12:05:08;;;;;;;0.30;0.20;;;11.40;91.20;;;;;;5110840;28;20696;-84
2024/01/27 12:07:34;;;;;;;0.30;0.20;;;11.40;91.00;;;;;;5110576;28;20231;-84
2024/01/27 12:10:00;;;;;;;0.30;0.20;;;11.50;91.10;;;;;;5126594;27;20236;-83
2024/01/27 12:12:25;;;;;;;0.30;0.20;;;11.60;91.10;;;;;;5110762;28;20184;-84
2024/01/27 12:14:52;;;;;;;0.30;0.20;;;11.70;91.10;;;;;;5126561;27;20212;-83
2024/01/27 12:17:19;;;;;;;0.40;0.40;;;11.80;91.30;;;;;;5126042;27;20195;-84
2024/01/27 12:19:54;;;;;;;0.30;0.20;;;11.80;90.80;;;;;;5109958;28;20931;-83
2024/01/27 12:22:28;;;;;;;0.30;0.20;;;11.80;90.70;;;;;;5126073;27;20424;-83
2024/01/27 12:24:54;;;;;;;0.30;0.20;;;11.80;90.50;;;;;;5110124;28;20175;-80
2024/01/27 12:27:22;;;;;;;0.30;0.20;;;11.80;90.60;;;;;;5110957;28;20471;-84
2024/01/27 12:29:49;;;;;;;0.30;0.20;;;11.70;90.50;;;;;;5110138;28;20495;-80
2024/01/27 12:32:16;;;;;;;0.30;0.20;;;11.70;90.50;;;;;;5126240;27;20953;-84
2024/01/27 12:34:42;;;;;;;0.30;0.20;;;11.60;90.50;;;;;;5109010;28;20431;-83
2024/01/27 12:37:10;;;;;;;0.30;0.20;;;11.40;90.60;;;;;;5108541;28;20175;-79
2024/01/27 12:39:35;;;;;;;0.30;0.20;;;11.30;90.50;;;;;;5108439;28;20689;-80
2024/01/27 12:42:01;;;;;;;0.30;0.20;;;11.20;90.70;;;;;;5108510;28;20263;-79
2024/01/27 12:44:27;;;;;;;0.30;0.20;;;11.10;91.00;;;;;;5123773;27;20552;-80
2024/01/27 12:46:52;;;;;;;0.30;0.20;;;11.10;91.00;;;;;;5124089;27;20226;-84
2024/01/27 12:49:18;;;;;;;0.30;0.20;;;11.00;90.90;;;;;;5108824;28;20228;-84